Bicknell, UT (84715)

6:46 AM MDT on August 27, 2014 (GMT -0600)
Loa | Change Station
CLOSE
Current Station
Personal Weather Station
Location: Loa, UT
Elevation: 7096 ft
Nearby Weather Stations

Elev 7096 ft 38.40 °N, 111.66 °W | Updated 16 minutes ago

Partly Cloudy
Partly Cloudy
43.2 °F
Feels Like 43 °F
N
2.0
Wind Variable Wind from West
Gusts 4.0 mph

Today
High -- | Low -- °F
--% Chance of Precip.
Yesterday
High -- | Low -- °F
Precip. -- in
6:51 AM 8:03 PM
Waxing Crescent, 3% visible
Pressure 30.12 in
Visibility 10.0 miles
Clouds Clear
Windchill 43 °F
Dew Point 41 °F
Humidity 92%
Rainfall 0.07 in
Snow Depth 0 in
UV 0 out of 12
Pollen 7.70 out of 12
Air Quality Not available.
Flu Activity Not available.
METAR KBCE 271153Z AUTO 00000KT 10SM CLR 03/02 A3035 RMK AO2 SLP198 60020 70054 T00330022 10078 20033 53000

More Conditions Fewer Conditions

Pressure 30.12 in
Visibility 10.0 miles
Clouds Clear
Windchill 43 °F
Dew Point 41 °F
Humidity 92%
Rainfall 0.07 in
Snow Depth 0 in
UV 0 out of 12
Pollen 7.70 out of 12
Air Quality Not available.
Flu Activity Not available.
METAR KBCE 271153Z AUTO 00000KT 10SM CLR 03/02 A3035 RMK AO2 SLP198 60020 70054 T00330022 10078 20033 53000

More Conditions Fewer Conditions

10-Day Weather Forecast

Almanac

Astronomy

Aug. 27, 2014 Rise Set
Actual Time 6:51 AM MDT 8:03 PM MDT
Civil Twilight 6:24 AM MDT 8:30 PM MDT
Nautical Twilight 5:51 AM MDT 9:03 PM MDT
Astronomical Twilight 5:17 AM MDT 9:37 PM MDT
Moon 8:48 AM MDT 8:59 PM MDT
Length of Visible Light 14h 06m
Length of Day
13h 11m
Tomorrow will be 2m 20s shorter.
Waxing Crescent, 3% of the Moon is Illuminated
Today
Waxing Crescent
Sep 2
First Quarter
Sep 8
Full
Sep 15
Last Quarter
Sep 24
New

Today's Extremes

State Highs State Lows

Community

WunderPhotos

Upload Photos

1,747,676 photos uploaded!

Nearby

Snow Depth

Station Depth Elevation
Donkey Reservoir 0 in 9800 ft
Black Flat-U.M. Creek 0 in 9400 ft
Box Creek 1 in 9800 ft
Clayton Springs 0 in 10000 ft
Farnsworth Lake 0 in 9600 ft

Earthquake Activity

City Distance Mag. Time & Date
No recent earthquake activity has been reported nearby.
Minimum magnitude displayed is 2.5.

Coastal Water Temperatures

Place Temperature
No Stations Reporting

Nearby Weather Stations